createdAt,value
2017-06-21T18:34:53.270Z,29.93
2017-06-21T18:37:21.683Z,30.80
2017-06-21T18:39:49.155Z,29.85
2017-06-21T18:42:17.683Z,29.67
2017-06-21T18:46:03.967Z,29.98
2017-06-21T18:48:33.690Z,29.97
2017-06-21T18:51:05.166Z,29.74
2017-06-21T18:53:33.444Z,29.52
2017-06-21T18:56:00.879Z,29.40
2017-06-21T18:58:28.303Z,29.20
2017-06-21T19:00:55.895Z,29.12
2017-06-21T19:03:23.920Z,29.00
2017-06-21T19:05:51.369Z,28.95
2017-06-21T19:08:18.800Z,28.83
2017-06-21T19:10:46.225Z,28.73
2017-06-21T19:13:13.652Z,28.63
2017-06-21T19:15:41.098Z,28.52
2017-06-21T19:18:08.522Z,28.46
2017-06-21T19:20:35.953Z,28.44
2017-06-21T19:23:03.752Z,28.35
2017-06-21T19:25:31.222Z,28.35
2017-06-21T19:27:58.638Z,28.27
2017-06-21T19:30:26.088Z,28.15
2017-06-21T19:32:53.511Z,28.02
2017-06-21T19:35:20.932Z,27.93
2017-06-21T19:37:48.793Z,27.92
2017-06-21T19:40:16.225Z,27.90
2017-06-21T19:42:43.650Z,27.83
2017-06-21T19:45:11.118Z,27.74
2017-06-21T19:47:53.362Z,27.54
2017-06-21T19:50:20.903Z,27.48
2017-06-21T19:52:49.302Z,27.42
2017-06-21T19:55:19.224Z,27.39
2017-06-21T19:57:46.811Z,27.29
2017-06-21T20:00:16.570Z,27.22
2017-06-21T20:02:44.231Z,27.26
2017-06-21T20:05:12.332Z,27.16
2017-06-21T20:07:40.455Z,27.02
2017-06-21T20:10:11.036Z,26.98
2017-06-21T20:12:38.999Z,26.90
2017-06-21T20:15:06.419Z,26.85
2017-06-21T20:17:33.856Z,26.79
2017-06-21T20:20:01.339Z,26.80
2017-06-21T20:22:28.775Z,26.72
2017-06-21T20:24:56.205Z,26.63
2017-06-21T20:27:23.649Z,26.54
2017-06-21T20:29:51.071Z,26.41
2017-06-21T20:32:20.908Z,26.34
2017-06-21T20:34:48.442Z,26.36
2017-06-21T20:37:15.862Z,26.31
2017-06-21T20:39:43.481Z,26.16
2017-06-21T20:42:10.929Z,26.15
2017-06-21T20:44:38.614Z,26.18
2017-06-21T20:47:06.031Z,26.16
2017-06-21T20:49:35.431Z,26.09
2017-06-21T20:52:02.850Z,26.04
2017-06-21T20:54:30.282Z,25.99
2017-06-21T20:56:59.584Z,25.98
2017-06-21T20:59:27.008Z,25.94
2017-06-21T21:01:54.627Z,25.81
2017-06-21T21:04:22.354Z,25.87
2017-06-21T21:06:49.800Z,25.82
2017-06-21T21:09:18.116Z,25.72
2017-06-21T21:11:45.683Z,25.68
2017-06-21T21:14:16.575Z,25.66
2017-06-21T21:16:44.041Z,25.67
2017-06-21T21:19:11.818Z,25.64
2017-06-21T21:21:39.262Z,25.65
2017-06-21T21:24:06.738Z,25.72
2017-06-21T21:26:34.514Z,25.67
2017-06-21T21:29:01.937Z,25.64
2017-06-21T21:31:29.357Z,25.62
2017-06-21T21:33:56.958Z,25.56
2017-06-21T21:36:24.592Z,25.60
2017-06-21T21:38:52.826Z,25.56
2017-06-21T21:41:20.415Z,25.53
2017-06-21T21:43:47.834Z,25.52
2017-06-21T21:46:15.279Z,25.44
2017-06-21T21:48:43.138Z,25.45
2017-06-21T21:51:12.982Z,25.44
2017-06-21T21:53:40.654Z,25.38
2017-06-21T21:56:08.227Z,25.27
2017-06-21T21:58:35.649Z,25.26
2017-06-21T22:01:03.078Z,25.22
2017-06-21T22:03:33.431Z,25.19
2017-06-21T22:06:01.610Z,25.11
2017-06-21T22:08:30.202Z,25.10
2017-06-21T22:11:00.674Z,25.11
2017-06-21T22:13:28.097Z,25.02
2017-06-21T22:15:55.518Z,25.05
2017-06-21T22:18:37.991Z,24.97
2017-06-21T22:21:05.651Z,24.96
2017-06-21T22:23:33.134Z,24.89
2017-06-21T22:26:00.683Z,24.88
2017-06-21T22:28:34.344Z,24.85
2017-06-21T22:31:03.524Z,24.80
2017-06-21T22:33:31.418Z,24.77
2017-06-21T22:35:58.871Z,24.75
2017-06-21T22:38:26.493Z,24.72
2017-06-21T22:40:55.239Z,24.68
2017-06-21T22:43:22.658Z,24.64
2017-06-21T22:45:50.295Z,24.64
2017-06-21T22:48:18.848Z,24.58
2017-06-21T22:50:46.735Z,24.53
2017-06-21T22:53:14.486Z,24.63
2017-06-21T22:55:41.930Z,24.52
2017-06-21T22:58:09.363Z,24.49
2017-06-21T23:00:37.276Z,24.48
2017-06-21T23:03:05.155Z,24.49
2017-06-21T23:05:32.587Z,24.41
2017-06-21T23:08:02.747Z,24.27
2017-06-21T23:10:30.887Z,24.24
2017-06-21T23:12:58.630Z,24.24
2017-06-21T23:15:27.319Z,24.20
2017-06-21T23:17:54.742Z,24.10
2017-06-21T23:20:22.158Z,24.05
2017-06-21T23:22:50.178Z,24.01
2017-06-21T23:25:17.923Z,23.97
2017-06-21T23:27:45.341Z,24.01
2017-06-21T23:30:12.943Z,23.95
2017-06-21T23:32:40.388Z,23.87
2017-06-21T23:35:07.823Z,23.81
2017-06-21T23:37:35.976Z,23.75
2017-06-21T23:40:03.510Z,23.74
2017-06-21T23:42:30.934Z,23.73
2017-06-21T23:44:58.912Z,23.64
2017-06-21T23:47:26.349Z,23.54
2017-06-21T23:49:53.768Z,23.42
2017-06-21T23:52:21.338Z,23.33
2017-06-21T23:54:48.796Z,23.19
2017-06-21T23:57:16.215Z,23.14
2017-06-21T23:59:46.235Z,23.16
